Time;durP1;ratioP1;P1;durP2;ratioP2;P2;SDS_P1;SDS_P2;PMS_P1;PMS_P2;Temp;Humidity;BMP_temperature;BMP_pressure;BME280_temperature;BME280_humidity;BME280_pressure;Samples;Min_cycle;Max_cycle;Signal;HPM_P1;HPM_P2
2021/12/09 00:01:07;;;;;;;4.20;3.05;;;;;;;17.69;27.42;99820.38;5052983;28;20033;-72
2021/12/09 00:03:37;;;;;;;5.22;3.35;;;;;;;17.73;27.47;99820.03;5053264;28;20633;-73
2021/12/09 00:06:05;;;;;;;3.45;2.78;;;;;;;17.73;27.13;99820.91;5054474;28;20503;-73
2021/12/09 00:08:31;;;;;;;3.72;3.13;;;;;;;17.75;27.16;99823.41;5054153;28;20490;-73
2021/12/09 00:10:59;;;;;;;3.95;2.90;;;;;;;17.73;27.40;99826.25;5054525;28;20029;-72
2021/12/09 00:13:26;;;;;;;4.75;3.58;;;;;;;17.74;27.40;99827.94;5054711;28;20083;-72
2021/12/09 00:15:52;;;;;;;5.15;3.35;;;;;;;17.76;27.44;99814.38;5054893;28;20040;-72
2021/12/09 00:18:18;;;;;;;4.50;3.22;;;;;;;17.74;27.38;99809.19;5054157;28;20500;-72
2021/12/09 00:20:44;;;;;;;6.90;3.40;;;;;;;17.75;27.36;99810.03;5054434;28;20123;-72
2021/12/09 00:23:10;;;;;;;5.50;3.55;;;;;;;17.73;27.49;99804.84;5052723;28;20040;-72
2021/12/09 00:25:37;;;;;;;6.00;3.42;;;;;;;17.75;27.10;99813.56;5054698;28;20036;-74
2021/12/09 00:28:03;;;;;;;5.03;3.03;;;;;;;17.74;27.42;99809.19;5053935;28;20032;-72
2021/12/09 00:30:30;;;;;;;4.18;2.97;;;;;;;17.77;26.93;99818.72;5054337;28;20037;-72
2021/12/09 00:32:57;;;;;;;4.55;2.92;;;;;;;17.76;27.00;99819.72;5054114;28;20043;-71
2021/12/09 00:35:28;;;;;;;5.05;3.13;;;;;;;17.76;27.15;99809.03;5035680;28;20029;-72
2021/12/09 00:38:07;;;;;;;4.50;2.80;;;;;;;17.75;26.85;99816.22;5037877;28;20028;-72
2021/12/09 00:40:33;;;;;;;4.43;2.90;;;;;;;17.77;26.78;99826.75;5054257;28;20043;-72
2021/12/09 00:43:00;;;;;;;4.35;2.90;;;;;;;17.76;27.18;99812.56;5053051;28;20078;-72
2021/12/09 00:45:26;;;;;;;4.78;3.38;;;;;;;17.70;27.46;99810.50;5053511;28;20029;-72
2021/12/09 00:47:53;;;;;;;3.38;2.67;;;;;;;17.66;27.35;99812.69;5052356;28;20028;-71
2021/12/09 00:50:19;;;;;;;4.10;3.00;;;;;;;17.65;27.59;99810.13;5053396;28;20522;-72
2021/12/09 00:52:46;;;;;;;3.92;2.90;;;;;;;17.63;28.01;99820.19;5053972;28;20037;-72
2021/12/09 00:55:12;;;;;;;4.00;2.70;;;;;;;17.59;28.06;99814.31;5053437;28;20057;-72
2021/12/09 00:57:39;;;;;;;4.32;2.83;;;;;;;17.57;28.29;99810.13;5053655;28;20538;-72
2021/12/09 01:00:14;;;;;;;4.90;2.97;;;;;;;17.53;28.42;99810.44;5053812;28;20029;-72
2021/12/09 01:02:39;;;;;;;5.15;3.00;;;;;;;17.52;28.60;99816.78;5052694;28;20041;-72
2021/12/09 01:05:06;;;;;;;4.38;3.00;;;;;;;17.47;28.90;99820.94;5052903;28;20183;-72
2021/12/09 01:07:32;;;;;;;4.00;2.70;;;;;;;17.40;29.05;99815.38;5053350;28;20064;-72
2021/12/09 01:09:58;;;;;;;4.10;3.00;;;;;;;17.35;29.24;99815.84;5053746;28;20025;-72
2021/12/09 01:12:24;;;;;;;4.60;3.10;;;;;;;17.35;29.00;99818.53;5053421;28;20167;-71
2021/12/09 01:14:50;;;;;;;4.47;2.70;;;;;;;17.34;28.82;99822.19;5053120;28;20071;-72
2021/12/09 01:17:15;;;;;;;4.57;2.88;;;;;;;17.35;29.05;99823.88;5052860;28;20029;-73
2021/12/09 01:19:41;;;;;;;4.55;3.10;;;;;;;17.37;28.75;99815.69;5052813;28;20033;-73
2021/12/09 01:22:08;;;;;;;4.03;3.38;;;;;;;17.38;28.38;99833.41;5053306;28;20079;-74
2021/12/09 01:24:34;;;;;;;3.42;2.47;;;;;;;17.38;28.80;99836.09;5053222;28;20037;-72
2021/12/09 01:27:00;;;;;;;3.78;2.92;;;;;;;17.42;28.29;99842.00;5053357;28;20060;-73
2021/12/09 01:29:52;;;;;;;4.70;3.20;;;;;;;17.40;28.69;99842.13;5053140;28;20037;-73
2021/12/09 01:32:14;;;;;;;3.95;2.80;;;;;;;17.43;28.19;99831.13;5052734;28;20029;-72
2021/12/09 01:34:40;;;;;;;4.63;2.92;;;;;;;17.48;28.02;99831.50;5052708;28;20399;-72
2021/12/09 01:37:05;;;;;;;4.13;2.58;;;;;;;17.51;27.64;99835.69;5052691;28;20037;-72
2021/12/09 01:39:31;;;;;;;4.65;3.10;;;;;;;17.54;27.61;99833.50;5053017;28;20511;-73
2021/12/09 01:41:58;;;;;;;3.95;2.60;;;;;;;17.57;27.59;99835.06;5051941;28;20514;-73
2021/12/09 01:44:25;;;;;;;3.10;2.47;;;;;;;17.58;27.71;99836.69;5052566;28;20036;-73
2021/12/09 01:46:51;;;;;;;5.07;2.90;;;;;;;17.60;27.56;99826.69;5052664;28;20070;-72
2021/12/09 01:49:17;;;;;;;3.30;2.63;;;;;;;17.65;27.56;99834.22;5053243;28;20088;-73
2021/12/09 01:51:45;;;;;;;3.50;2.45;;;;;;;17.68;27.40;99831.22;5052870;28;20029;-73
2021/12/09 01:54:11;;;;;;;3.95;3.30;;;;;;;17.74;27.14;99841.31;5053017;28;20033;-72
2021/12/09 01:56:37;;;;;;;3.65;2.40;;;;;;;17.74;27.26;99830.59;5051217;28;20419;-72
2021/12/09 01:59:05;;;;;;;3.63;2.90;;;;;;;17.75;27.36;99843.00;5051461;28;20116;-72
2021/12/09 02:01:33;;;;;;;3.63;2.88;;;;;;;17.78;26.97;99844.50;5052306;28;20025;-72
2021/12/09 02:03:59;;;;;;;3.75;2.85;;;;;;;17.79;27.35;99841.66;5052907;28;20456;-72
2021/12/09 02:06:26;;;;;;;3.47;2.60;;;;;;;17.79;26.90;99835.47;5052694;28;20453;-72
2021/12/09 02:08:53;;;;;;;5.47;2.92;;;;;;;17.79;27.03;99841.66;5051590;28;20067;-72
2021/12/09 02:11:19;;;;;;;3.90;2.80;;;;;;;17.85;27.05;99842.88;5052717;28;20025;-72
2021/12/09 02:13:45;;;;;;;3.75;2.65;;;;;;;17.88;27.08;99850.56;5052502;28;20033;-72
2021/12/09 02:16:11;;;;;;;6.60;2.88;;;;;;;17.89;27.31;99843.38;5052682;28;20032;-73
2021/12/09 02:18:37;;;;;;;3.38;2.65;;;;;;;17.88;27.44;99841.69;5044778;28;20033;-73
2021/12/09 02:21:08;;;;;;;3.33;2.65;;;;;;;17.86;27.52;99841.88;5032640;28;20044;-73
2021/12/09 02:23:36;;;;;;;4.38;3.00;;;;;;;17.87;27.47;99851.56;5032531;28;20497;-72
2021/12/09 02:26:03;;;;;;;4.07;2.60;;;;;;;17.88;27.13;99850.56;5032266;28;20041;-72
2021/12/09 02:28:29;;;;;;;3.40;2.47;;;;;;;17.87;27.58;99851.56;5041900;28;20281;-73
2021/12/09 02:30:55;;;;;;;4.28;2.88;;;;;;;17.84;27.48;99847.38;5052174;28;20035;-73
2021/12/09 02:33:21;;;;;;;4.03;2.70;;;;;;;17.84;27.27;99850.06;5052472;28;20075;-72
2021/12/09 02:35:47;;;;;;;3.22;2.40;;;;;;;17.85;27.49;99867.78;5052234;28;20503;-73
2021/12/09 02:38:13;;;;;;;3.97;2.83;;;;;;;17.84;27.76;99865.28;5049345;28;20040;-73
2021/12/09 02:40:38;;;;;;;4.22;2.70;;;;;;;17.82;27.70;99861.94;5051936;28;20045;-73
2021/12/09 02:43:07;;;;;;;3.30;2.47;;;;;;;17.81;27.55;99854.88;5051459;28;20533;-72
2021/12/09 02:45:33;;;;;;;4.35;3.30;;;;;;;17.78;27.81;99865.91;5052927;28;20064;-71
2021/12/09 02:47:59;;;;;;;4.57;3.10;;;;;;;17.78;28.06;99868.59;5052235;28;20453;-72
2021/12/09 02:50:25;;;;;;;3.85;2.75;;;;;;;17.75;28.26;99868.91;5052117;28;20086;-72
2021/12/09 02:52:50;;;;;;;5.63;2.50;;;;;;;17.73;28.36;99861.03;5051479;28;20024;-72
2021/12/09 02:55:16;;;;;;;3.35;2.25;;;;;;;17.68;28.62;99868.69;5051749;28;20474;-71
2021/12/09 02:57:41;;;;;;;3.80;2.60;;;;;;;17.63;28.98;99866.50;5051430;28;20041;-71
2021/12/09 03:00:10;;;;;;;3.88;2.50;;;;;;;17.59;29.22;99872.34;5051648;28;20037;-72
2021/12/09 03:02:36;;;;;;;3.33;2.75;;;;;;;17.52;29.15;99874.81;5052073;28;20021;-72
2021/12/09 03:05:04;;;;;;;4.07;3.10;;;;;;;17.50;28.90;99884.81;5051031;28;20399;-72
2021/12/09 03:07:39;;;;;;;4.43;3.08;;;;;;;17.45;29.04;99879.09;5051311;28;20033;-72
2021/12/09 03:10:10;;;;;;;3.67;2.38;;;;;;;17.42;29.39;99879.44;5052174;28;20036;-72
2021/12/09 03:12:40;;;;;;;4.45;2.67;;;;;;;17.39;29.27;99883.25;5053379;28;20187;-71
2021/12/09 03:15:07;;;;;;;3.45;2.42;;;;;;;17.41;29.14;99880.44;5055814;28;20036;-71
2021/12/09 03:17:33;;;;;;;4.35;3.22;;;;;;;17.41;28.92;99896.47;5055683;28;20036;-71
2021/12/09 03:19:59;;;;;;;3.88;2.60;;;;;;;17.41;29.09;99891.13;5055204;28;20404;-71
2021/12/09 03:22:25;;;;;;;3.72;3.00;;;;;;;17.41;28.83;99901.81;5055425;28;20029;-71
2021/12/09 03:24:51;;;;;;;4.20;2.67;;;;;;;17.41;28.69;99897.31;5055314;28;20112;-71
2021/12/09 03:27:17;;;;;;;4.88;3.00;;;;;;;17.43;28.75;99905.16;5054529;28;20033;-71
2021/12/09 03:29:43;;;;;;;4.35;3.22;;;;;;;17.45;28.36;99911.19;5053566;28;20035;-71
2021/12/09 03:32:12;;;;;;;6.22;3.45;;;;;;;17.44;28.22;99906.84;5055319;28;20029;-72
2021/12/09 03:34:39;;;;;;;5.20;2.90;;;;;;;17.47;28.08;99907.38;5055677;28;20098;-71
2021/12/09 03:37:12;;;;;;;4.05;2.80;;;;;;;17.51;28.43;99902.56;5055660;28;20403;-71
2021/12/09 03:39:39;;;;;;;4.65;3.17;;;;;;;17.53;28.20;99906.75;5055112;28;20047;-72
2021/12/09 03:42:09;;;;;;;4.40;2.95;;;;;;;17.57;27.84;99909.97;5055439;28;20067;-72
2021/12/09 03:44:36;;;;;;;4.93;2.97;;;;;;;17.60;27.82;99914.97;5055195;28;20029;-71
2021/12/09 03:47:06;;;;;;;4.28;3.00;;;;;;;17.61;27.77;99911.31;5055245;28;20048;-71
2021/12/09 03:49:32;;;;;;;5.80;3.60;;;;;;;17.63;27.70;99914.66;5055359;28;20033;-73
2021/12/09 03:51:57;;;;;;;4.47;2.78;;;;;;;17.64;27.54;99916.34;5055219;28;20094;-74
2021/12/09 03:54:24;;;;;;;4.43;2.92;;;;;;;17.66;27.65;99914.38;5055388;28;20120;-74
2021/12/09 03:56:50;;;;;;;5.00;3.47;;;;;;;17.67;27.48;99921.41;5054626;28;20049;-74
2021/12/09 03:59:16;;;;;;;4.70;3.13;;;;;;;17.71;27.54;99921.09;5055361;28;20091;-73
2021/12/09 04:01:43;;;;;;;4.70;3.55;;;;;;;17.75;27.50;99917.94;5054885;28;20474;-73
2021/12/09 04:04:10;;;;;;;5.07;3.42;;;;;;;17.79;27.48;99926.47;5054713;28;20407;-74
2021/12/09 04:06:36;;;;;;;5.18;3.22;;;;;;;17.79;27.39;99927.28;5054753;28;20051;-73
2021/12/09 04:09:04;;;;;;;5.03;3.50;;;;;;;17.79;27.10;99929.16;5054715;28;20037;-70
2021/12/09 04:11:30;;;;;;;4.55;3.17;;;;;;;17.81;27.43;99932.50;5054999;28;20396;-71
2021/12/09 04:13:55;;;;;;;5.20;3.17;;;;;;;17.83;27.30;99928.66;5054084;28;20037;-71
2021/12/09 04:16:22;;;;;;;3.95;2.78;;;;;;;17.87;27.32;99923.84;5054944;28;20477;-71
2021/12/09 04:18:48;;;;;;;4.85;3.10;;;;;;;17.88;27.44;99913.97;5054140;28;20033;-71
2021/12/09 04:21:14;;;;;;;6.43;3.33;;;;;;;17.90;27.45;99918.16;5054377;28;20036;-70
2021/12/09 04:23:40;;;;;;;4.32;3.28;;;;;;;17.89;27.48;99927.19;5053599;28;20124;-70
2021/12/09 04:26:05;;;;;;;5.53;3.67;;;;;;;17.88;27.45;99922.00;5054781;28;20503;-71
2021/12/09 04:28:33;;;;;;;4.80;3.00;;;;;;;17.84;27.23;99922.31;5054454;28;20029;-71
2021/12/09 04:30:59;;;;;;;4.18;3.15;;;;;;;17.84;27.21;99913.47;5054789;28;20048;-71
2021/12/09 04:33:25;;;;;;;4.85;3.05;;;;;;;17.83;27.48;99917.13;5053461;28;20024;-70
2021/12/09 04:35:51;;;;;;;5.90;3.42;;;;;;;17.81;27.56;99909.25;5054109;28;20103;-71
2021/12/09 04:38:16;;;;;;;6.05;3.08;;;;;;;17.75;27.79;99914.41;5052922;28;20071;-73
2021/12/09 04:40:42;;;;;;;4.70;3.20;;;;;;;17.69;28.09;99906.03;5053695;28;20033;-73
2021/12/09 04:43:07;;;;;;;4.53;2.88;;;;;;;17.69;28.24;99911.38;5053933;28;20036;-73
2021/12/09 04:45:34;;;;;;;5.82;3.72;;;;;;;17.67;28.06;99910.69;5054249;28;20048;-73
2021/12/09 04:48:01;;;;;;;4.63;2.90;;;;;;;17.63;28.44;99914.66;5053110;28;20029;-74
2021/12/09 04:50:26;;;;;;;5.57;3.42;;;;;;;17.59;28.65;99915.97;5053825;28;20033;-73
2021/12/09 04:52:52;;;;;;;4.82;3.30;;;;;;;17.55;28.86;99914.63;5053563;28;20040;-73
2021/12/09 04:55:18;;;;;;;4.43;2.88;;;;;;;17.50;29.17;99919.59;5053548;28;20103;-73
2021/12/09 04:57:44;;;;;;;5.90;3.15;;;;;;;17.43;29.06;99922.06;5052981;28;20033;-73
2021/12/09 05:00:17;;;;;;;5.00;3.05;;;;;;;17.41;29.33;99923.22;5053505;28;20040;-73
2021/12/09 05:03:03;;;;;;;4.32;2.80;;;;;;;17.41;29.26;99936.59;5053090;28;20037;-72
2021/12/09 05:05:37;;;;;;;4.38;3.28;;;;;;;17.34;29.18;99934.53;5054212;28;20067;-73
2021/12/09 05:08:08;;;;;;;3.83;2.45;;;;;;;17.33;28.65;99932.84;5053315;28;20040;-71
2021/12/09 05:10:50;;;;;;;4.68;3.03;;;;;;;17.35;28.89;99943.41;5053654;28;20052;-72
2021/12/09 05:13:17;;;;;;;4.45;2.88;;;;;;;17.31;28.56;99936.69;5052817;28;20028;-72
2021/12/09 05:15:43;;;;;;;4.40;2.92;;;;;;;17.28;28.39;99935.16;5053512;28;20400;-71
2021/12/09 05:18:09;;;;;;;4.40;3.03;;;;;;;17.29;28.64;99927.97;5052867;28;20037;-72
2021/12/09 05:20:34;;;;;;;5.82;3.25;;;;;;;17.33;28.60;99937.38;5053456;28;20039;-72
2021/12/09 05:23:00;;;;;;;4.88;3.13;;;;;;;17.32;28.00;99936.53;5053033;28;20033;-72
2021/12/09 05:25:25;;;;;;;4.43;2.95;;;;;;;17.34;28.08;99934.53;5052909;28;20035;-73
2021/12/09 05:27:53;;;;;;;6.13;3.15;;;;;;;17.38;28.11;99937.72;5052820;28;20104;-72
2021/12/09 05:30:24;;;;;;;5.03;3.33;;;;;;;17.41;28.05;99940.09;5053466;28;20029;-72
2021/12/09 05:32:50;;;;;;;4.97;3.20;;;;;;;17.42;27.78;99936.44;5052808;28;20033;-71
2021/12/09 05:35:18;;;;;;;5.57;3.50;;;;;;;17.46;27.57;99942.31;5052793;28;20428;-71
2021/12/09 05:37:44;;;;;;;6.32;3.55;;;;;;;17.48;27.50;99935.81;5046879;28;20520;-71
2021/12/09 05:40:12;;;;;;;5.10;3.20;;;;;;;17.51;27.34;99940.00;5052200;28;20033;-71
2021/12/09 05:42:38;;;;;;;6.35;3.15;;;;;;;17.57;27.78;99942.06;5052791;28;20041;-71
2021/12/09 05:45:05;;;;;;;6.55;3.50;;;;;;;17.60;27.85;99943.59;5052941;28;20035;-71
2021/12/09 05:47:31;;;;;;;4.30;2.80;;;;;;;17.63;27.68;99946.78;5052258;28;20036;-71
2021/12/09 05:49:56;;;;;;;5.05;2.90;;;;;;;17.66;27.67;99942.94;5052970;28;20036;-70
2021/12/09 05:52:22;;;;;;;4.47;3.00;;;;;;;17.72;27.72;99954.88;5052457;28;20511;-70
2021/12/09 05:54:48;;;;;;;4.18;2.97;;;;;;;17.72;27.57;99957.56;5052155;28;20032;-71
2021/12/09 05:57:14;;;;;;;6.05;3.25;;;;;;;17.75;27.51;99936.66;5051758;28;20117;-71
2021/12/09 05:59:41;;;;;;;4.75;2.72;;;;;;;17.78;27.59;99957.78;5052744;28;20040;-71
2021/12/09 06:02:11;;;;;;;4.57;2.90;;;;;;;17.80;27.54;99954.91;5052125;28;20033;-71
2021/12/09 06:04:37;;;;;;;4.40;2.90;;;;;;;17.79;27.70;99953.25;5052317;28;20045;-71
2021/12/09 06:07:03;;;;;;;5.47;2.67;;;;;;;17.83;27.24;99959.97;5051728;28;20036;-70
2021/12/09 06:09:29;;;;;;;5.05;2.88;;;;;;;17.84;27.48;99951.75;5052607;28;20039;-73
2021/12/09 06:11:55;;;;;;;5.38;3.45;;;;;;;17.85;27.67;99958.81;5052104;28;20111;-73
2021/12/09 06:14:20;;;;;;;5.63;3.15;;;;;;;17.87;28.00;99961.31;5052098;28;20115;-73
2021/12/09 06:16:46;;;;;;;4.53;2.92;;;;;;;17.89;27.98;99977.22;5052766;28;20037;-73
2021/12/09 06:19:12;;;;;;;5.25;3.03;;;;;;;17.90;27.70;99966.34;5051542;28;20056;-73
2021/12/09 06:21:38;;;;;;;5.18;3.22;;;;;;;17.90;27.34;99977.06;5052266;28;20040;-73
2021/12/09 06:24:04;;;;;;;4.22;3.10;;;;;;;17.90;27.34;99981.59;5052008;28;20514;-73
2021/12/09 06:26:31;;;;;;;6.40;3.13;;;;;;;17.89;27.13;99985.25;5052221;28;20115;-73
2021/12/09 06:28:58;;;;;;;3.85;2.97;;;;;;;17.90;27.25;99993.13;5051181;28;20052;-73
2021/12/09 06:31:24;;;;;;;4.05;2.40;;;;;;;17.91;27.32;99996.66;5051907;28;20484;-73
2021/12/09 06:33:50;;;;;;;4.38;3.03;;;;;;;17.90;27.10;99997.66;5051984;28;20036;-72
2021/12/09 06:36:16;;;;;;;4.78;2.83;;;;;;;17.93;26.92;100000.84;5051989;28;20033;-72
2021/12/09 06:38:42;;;;;;;5.15;2.92;;;;;;;17.93;27.13;100003.53;5051584;28;20466;-72
2021/12/09 06:41:08;;;;;;;4.70;2.92;;;;;;;17.92;26.99;99995.66;5052194;28;20124;-73
2021/12/09 06:43:40;;;;;;;4.05;3.17;;;;;;;17.89;27.32;100007.50;5051763;28;20443;-72
2021/12/09 06:46:07;;;;;;;5.60;3.17;;;;;;;17.87;27.34;100006.81;5052125;28;20391;-74
2021/12/09 06:48:33;;;;;;;4.70;2.92;;;;;;;17.86;27.41;100013.19;5051064;28;20108;-74
2021/12/09 06:51:01;;;;;;;3.88;2.78;;;;;;;17.83;27.39;100013.50;5052286;28;20033;-76
2021/12/09 06:53:28;;;;;;;4.32;2.85;;;;;;;17.78;27.90;100013.13;5051980;28;20055;-72
2021/12/09 06:55:54;;;;;;;4.03;3.30;;;;;;;17.76;27.63;100013.28;5051528;28;20102;-72
2021/12/09 06:58:21;;;;;;;4.00;2.97;;;;;;;17.71;27.95;100009.41;5049869;28;20025;-74
2021/12/09 07:00:48;;;;;;;4.13;2.80;;;;;;;17.66;28.48;100020.53;5052123;28;20087;-75
2021/12/09 07:03:17;;;;;;;6.65;3.00;;;;;;;17.62;28.50;100017.34;5051819;28;20481;-72
2021/12/09 07:05:44;;;;;;;3.30;2.60;;;;;;;17.59;28.38;100024.84;5051992;28;20094;-69
2021/12/09 07:08:11;;;;;;;3.17;2.45;;;;;;;17.58;28.73;100024.00;5051446;28;20037;-73
2021/12/09 07:10:37;;;;;;;5.15;2.90;;;;;;;17.58;28.43;100015.97;5051882;28;20033;-73
2021/12/09 07:13:04;;;;;;;4.93;3.00;;;;;;;17.56;28.57;100025.16;5051973;28;20060;-73
2021/12/09 07:15:30;;;;;;;5.55;3.05;;;;;;;17.58;28.57;100028.53;5051027;28;20040;-70
2021/12/09 07:17:56;;;;;;;4.97;2.72;;;;;;;17.61;28.41;100020.19;5051243;28;20098;-70
2021/12/09 07:20:23;;;;;;;4.72;3.13;;;;;;;17.63;28.36;100015.53;5051942;28;20074;-71
2021/12/09 07:22:49;;;;;;;4.07;2.97;;;;;;;17.65;28.22;100021.53;5051783;28;20170;-74
2021/12/09 07:25:15;;;;;;;5.47;3.15;;;;;;;17.67;28.34;100028.44;5051816;28;20112;-74
2021/12/09 07:27:41;;;;;;;5.00;2.60;;;;;;;17.66;28.46;100024.06;5050859;28;20040;-72
2021/12/09 07:30:09;;;;;;;4.75;2.95;;;;;;;17.69;28.01;100041.66;5051675;28;20107;-71
2021/12/09 07:32:35;;;;;;;4.65;2.60;;;;;;;17.74;27.66;100041.19;5051204;28;20029;-71
2021/12/09 07:35:02;;;;;;;4.93;2.65;;;;;;;17.78;27.48;100034.53;5051504;28;20547;-71
2021/12/09 07:37:28;;;;;;;4.93;3.13;;;;;;;17.81;27.64;100043.09;5051714;28;20053;-72
2021/12/09 07:39:53;;;;;;;3.83;2.75;;;;;;;17.81;27.63;100039.56;5051303;28;20055;-72
2021/12/09 07:42:19;;;;;;;5.43;3.35;;;;;;;17.83;27.22;100037.59;5051077;28;20518;-72
2021/12/09 07:44:45;;;;;;;4.07;3.05;;;;;;;17.86;27.40;100034.59;5051446;28;20102;-70
2021/12/09 07:47:10;;;;;;;4.00;3.03;;;;;;;17.87;27.24;100038.94;5050468;28;20109;-71
2021/12/09 07:49:36;;;;;;;4.90;2.70;;;;;;;17.91;27.44;100047.53;5051326;28;20036;-71
2021/12/09 07:52:04;;;;;;;3.92;2.78;;;;;;;17.96;27.44;100035.34;5051146;28;20115;-71
2021/12/09 07:54:30;;;;;;;5.85;3.10;;;;;;;18.01;27.48;100040.25;5050809;28;20040;-71
2021/12/09 07:56:56;;;;;;;3.75;2.35;;;;;;;18.06;27.28;100043.31;5050559;28;20467;-71
2021/12/09 07:59:21;;;;;;;3.53;2.42;;;;;;;18.09;27.39;100048.31;5054623;28;20033;-71
2021/12/09 08:01:47;;;;;;;5.75;3.33;;;;;;;18.07;27.25;100054.84;5055277;28;20494;-70
2021/12/09 08:04:13;;;;;;;4.95;2.97;;;;;;;18.08;27.25;100053.84;5053551;28;20033;-72
2021/12/09 08:06:38;;;;;;;5.50;3.60;;;;;;;18.08;27.15;100056.53;5054964;28;20032;-72
2021/12/09 08:09:05;;;;;;;4.43;2.75;;;;;;;18.09;27.34;100052.84;5054910;28;20033;-72
2021/12/09 08:11:33;;;;;;;6.63;3.22;;;;;;;18.09;27.14;100050.19;5054937;28;20075;-70
2021/12/09 08:13:59;;;;;;;4.65;3.10;;;;;;;18.06;27.12;100061.19;5053817;28;20048;-71
2021/12/09 08:16:25;;;;;;;4.72;2.97;;;;;;;18.04;27.26;100058.69;5054646;28;20111;-70
2021/12/09 08:18:53;;;;;;;5.90;3.72;;;;;;;18.02;27.02;100059.81;5054566;28;20120;-71
2021/12/09 08:21:20;;;;;;;5.20;3.70;;;;;;;18.04;26.83;100057.81;5054975;28;20041;-71
2021/12/09 08:23:47;;;;;;;4.78;3.10;;;;;;;18.03;26.84;100066.84;5054045;28;20040;-70
2021/12/09 08:26:12;;;;;;;5.63;3.38;;;;;;;18.06;27.19;100063.88;5054309;28;20082;-70
2021/12/09 08:28:38;;;;;;;4.70;3.00;;;;;;;18.08;27.11;100069.91;5054164;28;20029;-69
2021/12/09 08:31:04;;;;;;;5.93;3.40;;;;;;;18.08;27.39;100069.91;5054652;28;20021;-69
2021/12/09 08:33:29;;;;;;;6.57;3.65;;;;;;;18.06;27.31;100079.94;5054338;28;20033;-70
2021/12/09 08:35:55;;;;;;;4.53;2.65;;;;;;;18.06;27.62;100082.63;5054296;28;20033;-70
2021/12/09 08:38:21;;;;;;;5.43;3.10;;;;;;;17.99;27.43;100069.88;5039501;28;20397;-69
2021/12/09 08:40:48;;;;;;;7.00;3.78;;;;;;;17.93;26.91;100086.50;5051163;28;20391;-71
2021/12/09 08:43:14;;;;;;;5.18;3.22;;;;;;;17.91;27.53;100088.50;5053697;28;20032;-73
2021/12/09 08:45:40;;;;;;;4.95;3.30;;;;;;;17.89;27.67;100087.81;5053854;28;20056;-73
2021/12/09 08:48:07;;;;;;;6.00;3.20;;;;;;;17.84;28.10;100085.59;5053417;28;20480;-73
2021/12/09 08:50:34;;;;;;;5.63;4.53;;;;;;;17.81;27.86;100085.91;5053591;28;20116;-72
2021/12/09 08:53:03;;;;;;;5.97;4.15;;;;;;;17.81;27.80;100085.91;5038508;28;20511;-73
2021/12/09 08:55:29;;;;;;;5.05;3.42;;;;;;;17.75;28.32;100083.00;5053625;28;20057;-73
2021/12/09 08:57:55;;;;;;;6.15;4.03;;;;;;;17.70;28.47;100080.81;5053425;28;20048;-71
2021/12/09 09:00:21;;;;;;;5.28;3.45;;;;;;;17.66;28.56;100077.59;5052492;28;20041;-71
2021/12/09 09:02:47;;;;;;;7.28;3.63;;;;;;;17.66;28.90;100071.38;5042340;28;20038;-72
2021/12/09 09:05:14;;;;;;;6.35;3.40;;;;;;;17.66;28.75;100071.38;5051193;28;20037;-71
2021/12/09 09:07:47;;;;;;;6.30;3.53;;;;;;;17.66;28.96;100074.06;5052973;28;20447;-72
2021/12/09 09:10:17;;;;;;;4.32;3.00;;;;;;;17.67;29.14;100075.75;5052390;28;20112;-71
2021/12/09 09:12:42;;;;;;;6.00;3.58;;;;;;;17.69;28.99;100082.66;5053196;28;20103;-72
2021/12/09 09:15:13;;;;;;;4.75;3.10;;;;;;;17.72;29.21;100078.00;5053668;28;20131;-71
2021/12/09 09:17:39;;;;;;;4.97;3.65;;;;;;;17.74;28.77;100076.84;5053052;28;20498;-72
2021/12/09 09:20:07;;;;;;;7.00;3.63;;;;;;;17.78;28.66;100075.53;5052704;28;20035;-72
2021/12/09 09:22:33;;;;;;;7.78;3.92;;;;;;;17.81;29.22;100080.56;5052233;28;20036;-72
2021/12/09 09:24:58;;;;;;;8.85;4.07;;;;;;;17.88;29.42;100083.44;5047310;28;20047;-71
2021/12/09 09:27:24;;;;;;;7.25;4.70;;;;;;;17.94;29.98;100068.63;5052658;28;20035;-73
2021/12/09 09:29:50;;;;;;;11.63;4.75;;;;;;;17.95;30.26;100071.13;5053567;28;20128;-71
2021/12/09 09:32:15;;;;;;;13.20;5.75;;;;;;;17.95;30.12;100079.16;5052409;28;20032;-72
2021/12/09 09:34:41;;;;;;;10.15;5.38;;;;;;;17.97;30.28;100079.91;5052291;28;20032;-72
2021/12/09 09:37:07;;;;;;;13.40;6.30;;;;;;;18.02;30.69;100067.84;5052683;28;20029;-75
2021/12/09 09:39:33;;;;;;;16.75;6.88;;;;;;;18.06;30.53;100067.41;5051772;28;20040;-70
2021/12/09 09:44:48;;;;;;;13.57;6.57;;;;;;;18.12;30.20;100063.25;5052346;28;20439;-70
2021/12/09 09:47:16;;;;;;;13.32;6.40;;;;;;;18.12;30.42;100068.63;5051772;28;20395;-71
2021/12/09 09:49:43;;;;;;;17.35;6.97;;;;;;;18.13;30.44;100075.66;5052383;28;20033;-71
2021/12/09 09:52:10;;;;;;;12.65;6.60;;;;;;;18.14;30.23;100088.88;5050919;28;20500;-71
2021/12/09 09:54:37;;;;;;;19.08;7.18;;;;;;;18.15;30.25;100087.88;5045318;28;20112;-71
2021/12/09 09:57:04;;;;;;;12.48;6.90;;;;;;;18.16;30.16;100075.31;5050326;28;21365;-77
2021/12/09 09:59:30;;;;;;;12.02;6.30;;;;;;;18.21;30.60;100069.50;5049089;28;20518;-71
2021/12/09 10:01:55;;;;;;;10.65;6.60;;;;;;;18.24;30.88;100074.53;5046999;28;20025;-72
2021/12/09 10:05:06;;;;;;;11.52;6.18;;;;;;;18.26;30.72;100076.06;5050588;28;20072;-78
2021/12/09 10:07:14;;;;;;;11.48;7.25;;;;;;;18.27;30.80;100063.50;5039180;28;20484;-72
2021/12/09 10:09:41;;;;;;;9.60;6.00;;;;;;;18.27;30.65;100071.53;5052115;28;20095;-72
2021/12/09 10:12:07;;;;;;;16.58;6.35;;;;;;;18.25;30.74;100065.50;5051848;28;20032;-70
2021/12/09 10:14:34;;;;;;;9.88;5.55;;;;;;;18.22;30.61;100061.31;5052270;28;20049;-71
2021/12/09 10:17:21;;;;;;;11.55;5.35;;;;;;;18.21;30.52;100066.84;5049774;28;20813;-67
2021/12/09 10:19:46;;;;;;;10.27;6.07;;;;;;;18.20;30.51;100070.50;5050308;28;20490;-73
2021/12/09 10:22:25;;;;;;;11.15;5.70;;;;;;;18.19;30.75;100076.84;5051699;28;20052;-68
2021/12/09 10:24:53;;;;;;;9.30;4.90;;;;;;;18.21;30.49;100078.38;5030849;28;20500;-70
2021/12/09 10:27:28;;;;;;;10.43;5.45;;;;;;;18.23;30.56;100072.88;5035106;28;20028;-72
2021/12/09 10:30:01;;;;;;;10.57;5.35;;;;;;;18.18;30.68;100073.31;5050551;28;20029;-74
2021/12/09 10:32:33;;;;;;;13.63;6.35;;;;;;;18.21;30.68;100073.00;5052108;28;20041;-71
2021/12/09 10:35:09;;;;;;;14.75;6.25;;;;;;;18.22;30.76;100069.34;5052323;28;20029;-71
2021/12/09 10:37:36;;;;;;;11.55;5.70;;;;;;;18.19;30.63;100068.81;5051026;28;20051;-70
2021/12/09 10:40:08;;;;;;;13.05;4.93;;;;;;;18.25;30.07;100066.34;5046574;28;20094;-72
2021/12/09 10:42:35;;;;;;;10.88;5.70;;;;;;;18.26;30.41;100068.03;5049776;28;20029;-71
2021/12/09 10:45:03;;;;;;;11.60;5.70;;;;;;;18.25;30.51;100074.38;5051607;28;20035;-70
2021/12/09 10:51:07;;;;;;;10.13;5.57;;;;;;;18.22;30.59;100085.41;5051115;28;20447;-70
2021/12/09 10:55:48;;;;;;;7.80;5.00;;;;;;;18.22;30.42;100093.44;5048030;28;20053;-70
2021/12/09 10:58:17;;;;;;;11.30;6.05;;;;;;;18.20;30.32;100095.44;5038405;28;20052;-71
2021/12/09 11:01:07;;;;;;;10.32;5.60;;;;;;;18.16;30.38;100102.09;5052434;28;20044;-70
2021/12/09 11:03:42;;;;;;;7.25;4.65;;;;;;;18.13;30.52;100097.06;5044597;28;20037;-70
2021/12/09 11:06:14;;;;;;;7.85;5.10;;;;;;;18.12;30.18;100104.25;5051871;28;20036;-70
2021/12/09 11:08:44;;;;;;;8.82;5.22;;;;;;;18.11;30.43;100107.09;5051326;28;20037;-70
2021/12/09 11:11:15;;;;;;;8.82;4.70;;;;;;;18.08;30.47;100110.09;5052035;28;20036;-69
2021/12/09 11:13:44;;;;;;;8.45;5.22;;;;;;;18.08;30.32;100107.41;5051908;28;20025;-68
2021/12/09 11:16:11;;;;;;;6.82;4.53;;;;;;;18.10;30.41;100103.56;5051869;28;20037;-69
2021/12/09 11:18:43;;;;;;;6.28;4.40;;;;;;;18.14;30.40;100101.44;5051572;28;20039;-71
2021/12/09 11:21:12;;;;;;;8.98;5.28;;;;;;;18.14;30.36;100104.94;5051164;28;20126;-66
2021/12/09 11:23:41;;;;;;;7.75;4.65;;;;;;;18.15;30.36;100103.94;5051115;28;20033;-69
2021/12/09 11:26:34;;;;;;;7.20;3.75;;;;;;;18.14;30.10;100110.28;5051262;28;20463;-69
2021/12/09 11:29:33;;;;;;;7.03;3.75;;;;;;;18.13;30.12;100116.66;5051278;28;20032;-72
2021/12/09 11:34:49;;;;;;;6.97;3.83;;;;;;;18.12;29.70;100124.84;5035531;28;20040;-71
2021/12/09 11:39:53;;;;;;;7.55;4.32;;;;;;;18.13;29.93;100126.53;5035286;28;20045;-70
2021/12/09 11:42:26;;;;;;;8.07;5.35;;;;;;;18.14;29.86;100128.22;5035630;28;20065;-72
2021/12/09 11:44:52;;;;;;;7.30;4.80;;;;;;;18.14;29.60;100138.94;5036453;28;20029;-70